Time;durP1;ratioP1;P1;durP2;ratioP2;P2;SDS_P1;SDS_P2;PMS_P1;PMS_P2;Temp;Humidity;BMP_temperature;BMP_pressure;BME280_temperature;BME280_humidity;BME280_pressure;Samples;Min_cycle;Max_cycle;Signal;HPM_P1;HPM_P2
2024/01/16 00:01:37;;;;;;;;;0.00;0.00;;;;;-0.43;100.00;101121.34;5053753;28;46277;-84
2024/01/16 00:04:03;;;;;;;;;0.00;0.00;;;;;-0.42;100.00;101121.38;5077797;27;55576;-84
2024/01/16 00:06:28;;;;;;;;;0.00;0.00;;;;;-0.43;100.00;101126.47;5078055;28;45556;-84
2024/01/16 00:08:54;;;;;;;;;0.00;0.00;;;;;-0.42;100.00;101121.38;5060168;28;45378;-84
2024/01/16 00:11:19;;;;;;;;;0.00;0.00;;;;;-0.42;100.00;101115.41;5077074;28;52608;-84
2024/01/16 00:13:44;;;;;;;;;0.00;0.00;;;;;-0.43;100.00;101116.22;5041200;28;64735;-83
2024/01/16 00:16:09;;;;;;;;;0.00;0.00;;;;;-0.47;100.00;101117.00;5058917;28;66428;-85
2024/01/16 00:18:35;;;;;;;;;0.00;0.00;;;;;-0.50;100.00;101102.47;5054647;28;71409;-84
2024/01/16 00:21:02;;;;;;;;;0.00;0.00;;;;;-0.49;100.00;101105.88;5056261;28;48090;-85
2024/01/16 00:23:28;;;;;;;;;0.00;0.00;;;;;-0.47;100.00;101109.31;5057333;28;45404;-84
2024/01/16 00:25:53;;;;;;;;;0.00;0.00;;;;;-0.51;100.00;101110.09;5071999;28;45443;-84
2024/01/16 00:28:19;;;;;;;;;0.00;0.00;;;;;-0.52;100.00;101110.91;5066698;27;45427;-84
2024/01/16 00:30:45;;;;;;;;;0.00;0.00;;;;;-0.54;100.00;101113.44;5085963;27;45778;-85
2024/01/16 00:33:12;;;;;;;;;0.00;0.00;;;;;-0.62;100.00;101108.13;5076460;28;47314;-85
2024/01/16 00:35:37;;;;;;;;;0.00;0.00;;;;;-0.59;100.00;101110.78;5059925;28;45321;-84
2024/01/16 00:38:03;;;;;;;;;0.00;0.00;;;;;-0.59;100.00;101110.78;5059004;28;45843;-84
2024/01/16 00:40:28;;;;;;;;;0.00;0.00;;;;;-0.62;100.00;101113.25;5076590;28;47210;-85
2024/01/16 00:42:53;;;;;;;;;0.00;0.00;;;;;-0.63;100.00;101110.69;5059387;28;45398;-84
2024/01/16 00:45:19;;;;;;;;;0.00;0.00;;;;;-0.72;100.00;101102.81;5077839;28;45665;-84
2024/01/16 00:47:44;;;;;;;;;0.00;0.00;;;;;-0.71;100.00;101107.94;5059788;28;45479;-84
2024/01/16 00:50:09;;;;;;;;;0.00;0.00;;;;;-0.72;100.00;101113.03;5059376;28;46864;-85
2024/01/16 00:52:35;;;;;;;;;0.00;0.00;;;;;-0.75;100.00;101107.84;5058066;28;70848;-84
2024/01/16 00:55:00;;;;;;;;;0.00;0.00;;;;;-0.78;100.00;101100.94;5059471;28;45412;-85
2024/01/16 00:57:25;;;;;;;;;0.00;0.00;;;;;-0.74;100.00;101101.88;5041690;28;45281;-84
2024/01/16 00:59:51;;;;;;;;;0.00;0.00;;;;;-0.82;100.00;101106.81;5058874;28;48396;-84
2024/01/16 01:02:17;;;;;;;;;0.00;0.00;;;;;-0.90;100.00;101088.75;5059202;28;45640;-84
2024/01/16 01:04:42;;;;;;;;;0.00;0.00;;;;;-0.91;100.00;101091.28;5077479;27;45573;-84
2024/01/16 01:07:08;;;;;;;;;0.00;0.00;;;;;-0.88;100.00;101104.97;5059319;28;45460;-84
2024/01/16 01:09:34;;;;;;;;;0.00;0.00;;;;;-0.94;100.00;101097.19;5042273;28;47964;-84
2024/01/16 01:11:59;;;;;;;;;0.00;0.00;;;;;-1.03;100.00;101090.16;5076080;28;45541;-84
2024/01/16 01:14:26;;;;;;;;;0.00;0.00;;;;;-1.06;100.00;101074.75;5059121;27;45536;-84
2024/01/16 01:16:51;;;;;;;;;5.00;5.00;;;;;-1.01;100.00;101083.38;5042718;28;45427;-84
2024/01/16 01:19:17;;;;;;;;;0.00;0.00;;;;;-1.02;100.00;101091.03;5041811;28;47438;-83
2024/01/16 01:21:43;;;;;;;;;0.00;0.00;;;;;-1.09;100.00;101081.50;5041752;28;45892;-85
2024/01/16 01:24:09;;;;;;;;;0.00;0.00;;;;;-1.06;100.00;101087.53;5042199;28;45408;-85
2024/01/16 01:26:34;;;;;;;;;0.00;0.00;;;;;-1.08;100.00;101084.06;5059205;28;45374;-85
2024/01/16 01:28:59;;;;;;;;;0.00;0.00;;;;;-1.11;100.00;101084.00;5037577;28;47011;-84
2024/01/16 01:31:25;;;;;;;;;0.00;0.00;;;;;-1.13;100.00;101077.09;5038427;28;55087;-85
2024/01/16 01:33:50;;;;;;;;;0.00;0.00;;;;;-1.05;100.00;101096.91;5038724;28;45352;-84
2024/01/16 01:36:15;;;;;;;;;0.00;0.00;;;;;-1.09;100.00;101097.69;5038316;28;45238;-84
2024/01/16 01:38:41;;;;;;;;;0.00;0.00;;;;;-1.11;100.00;101094.22;5037945;28;69395;-85
2024/01/16 01:41:06;;;;;;;;;0.00;0.00;;;;;-1.07;100.00;101102.81;5038064;28;53098;-85
2024/01/16 01:43:31;;;;;;;;;0.00;0.00;;;;;-1.04;100.00;101124.22;5038372;28;45510;-85
2024/01/16 01:46:11;;;;;;;;;0.00;0.00;;;;;-1.09;100.00;101114.72;5038180;28;47345;-83
2024/01/16 01:48:41;;;;;;;;;0.00;0.00;;;;;-1.14;100.00;101118.81;5060565;28;45523;-85
2024/01/16 01:51:06;;;;;;;;;0.00;0.00;;;;;-1.17;100.00;101125.59;5058496;28;45456;-85
2024/01/16 01:53:33;;;;;;;;;0.00;0.00;;;;;-1.17;100.00;101128.16;5058110;28;63514;-84
2024/01/16 01:55:59;;;;;;;;;0.00;0.00;;;;;-1.13;100.00;101134.19;5058617;28;45342;-85
2024/01/16 01:58:24;;;;;;;;;0.00;0.00;;;;;-1.19;100.00;101121.25;5076603;28;45646;-85
2024/01/16 02:00:50;;;;;;;;;0.00;0.00;;;;;-1.17;100.00;101119.59;5056590;28;71938;-84
2024/01/16 02:03:15;;;;;;;;;0.00;0.00;;;;;-1.17;100.00;101122.16;5058475;28;45300;-84
2024/01/16 02:05:41;;;;;;;;;0.00;0.00;;;;;-1.19;100.00;101122.13;5057794;28;53239;-84
2024/01/16 02:08:06;;;;;;;;;0.00;0.00;;;;;-1.22;100.00;101116.09;5057619;28;70251;-85
2024/01/16 02:10:32;;;;;;;;;0.00;0.00;;;;;-1.19;100.00;101123.81;5060738;28;58969;-84
2024/01/16 02:12:57;;;;;;;;;0.00;0.00;;;;;-1.25;100.00;101111.75;5074120;27;45412;-85
2024/01/16 02:15:23;;;;;;;;;0.00;0.00;;;;;-1.20;100.00;101119.53;5061883;27;45423;-84
2024/01/16 02:17:49;;;;;;;;;0.00;0.00;;;;;-1.23;100.00;101115.19;5061482;28;47038;-85
2024/01/16 02:20:14;;;;;;;;;0.00;0.00;;;;;-1.22;100.00;101113.53;5037423;28;47710;-85
2024/01/16 02:22:42;;;;;;;;;0.00;0.00;;;;;-1.25;100.00;101105.78;5021458;28;45287;-85
2024/01/16 02:25:08;;;;;;;;;0.00;0.00;;;;;-1.30;100.00;101092.91;5038398;28;45571;-85
2024/01/16 02:27:33;;;;;;;;;0.00;0.00;;;;;-1.23;100.00;101099.00;5037397;28;69704;-84
2024/01/16 02:29:58;;;;;;;;;0.00;0.00;;;;;-1.26;100.00;101098.97;5037373;28;68605;-85
2024/01/16 02:32:23;;;;;;;;;0.00;0.00;;;;;-1.30;100.00;101090.34;5037186;28;69066;-84
2024/01/16 02:34:50;;;;;;;;;0.00;0.00;;;;;-1.32;100.00;101084.31;5039265;28;45457;-85
2024/01/16 02:37:15;;;;;;;;;0.00;0.00;;;;;-1.30;100.00;101082.69;5055599;28;45568;-84
2024/01/16 02:39:41;;;;;;;;;0.00;0.00;;;;;-1.27;100.00;101087.84;5040939;28;58393;-84
2024/01/16 02:42:06;;;;;;;;;0.00;0.00;;;;;-1.29;100.00;101086.97;5041262;28;45449;-85
2024/01/16 02:44:31;;;;;;;;;0.00;0.00;;;;;-1.29;100.00;101084.41;5057400;28;65788;-85
2024/01/16 02:46:57;;;;;;;;;0.00;0.00;;;;;-1.33;100.00;101068.97;5040847;28;47255;-84
2024/01/16 02:49:22;;;;;;;;;0.00;0.00;;;;;-1.30;100.00;101084.34;5030462;28;45360;-85
2024/01/16 02:51:47;;;;;;;;;0.00;0.00;;;;;-1.35;100.00;101068.09;5038238;28;45328;-85
2024/01/16 02:54:13;;;;;;;;;0.00;0.00;;;;;-1.36;100.00;101069.75;5035613;28;50121;-85
2024/01/16 02:56:38;;;;;;;;;0.00;0.00;;;;;-1.34;100.00;101069.78;5057561;28;47195;-85
2024/01/16 02:59:03;;;;;;;;;0.00;0.00;;;;;-1.37;100.00;101061.22;5057054;28;70081;-85
2024/01/16 03:01:29;;;;;;;;;0.00;0.00;;;;;-1.47;100.00;101045.63;5074607;28;45374;-85
2024/01/16 03:03:54;;;;;;;;;0.00;0.00;;;;;-1.40;100.00;101057.72;5056761;28;64654;-84
2024/01/16 03:06:28;;;;;;;;;0.00;0.00;;;;;-1.39;100.00;101067.13;5073545;28;77320;-85
2024/01/16 03:08:53;;;;;;;;;0.00;0.00;;;;;-1.43;100.00;101060.19;5070588;27;45295;-85
2024/01/16 03:11:18;;;;;;;;;0.00;0.00;;;;;-1.43;100.00;101055.97;5022963;28;45541;-85
2024/01/16 03:13:45;;;;;;;;;0.00;0.00;;;;;-1.47;100.00;101048.19;5039829;28;70456;-85
2024/01/16 03:16:10;;;;;;;;;0.25;0.25;;;;;-1.43;100.00;101052.53;5040736;28;47356;-84
2024/01/16 03:18:37;;;;;;;;;0.00;0.00;;;;;-1.50;100.00;101046.44;5058748;28;45378;-85
2024/01/16 03:21:04;;;;;;;;;0.00;0.00;;;;;-1.54;100.00;101043.75;5060496;28;45392;-85
2024/01/16 03:23:29;;;;;;;;;6.00;6.00;;;;;-1.53;100.00;101043.78;5060958;28;45547;-85
2024/01/16 03:25:54;;;;;;;;;0.00;0.00;;;;;-1.56;100.00;101044.59;5077956;28;48106;-84
2024/01/16 03:28:20;;;;;;;;;0.00;0.00;;;;;-1.56;100.00;101049.69;5078029;27;61406;-85
2024/01/16 03:30:46;;;;;;;;;0.00;0.00;;;;;-1.54;100.00;101053.97;5061149;28;45521;-85
2024/01/16 03:33:11;;;;;;;;;0.00;0.00;;;;;-1.60;100.00;101050.44;5077518;27;45512;-85
2024/01/16 03:35:36;;;;;;;;;0.00;0.00;;;;;-1.56;100.00;101059.91;5043929;28;47223;-85
2024/01/16 03:38:02;;;;;;;;;0.00;0.00;;;;;-1.60;100.00;101049.56;5043610;28;54399;-85
2024/01/16 03:40:27;;;;;;;;;0.00;0.00;;;;;-1.58;100.00;101050.47;5060603;28;50552;-84
2024/01/16 03:42:53;;;;;;;;;0.00;0.00;;;;;-1.58;100.00;101053.91;5059994;28;45403;-85
2024/01/16 03:45:18;;;;;;;;;0.00;0.00;;;;;-1.54;100.00;101051.41;5060523;28;46919;-85
2024/01/16 03:47:44;;;;;;;;;0.00;0.00;;;;;-1.56;100.00;101054.81;5060343;28;45389;-85
2024/01/16 03:50:10;;;;;;;;;0.00;0.00;;;;;-1.59;100.00;101051.31;5078690;28;45387;-85
2024/01/16 03:52:35;;;;;;;;;0.00;0.00;;;;;-1.59;100.00;101049.59;5061113;28;45328;-85
2024/01/16 03:55:00;;;;;;;;;0.00;0.00;;;;;-1.59;100.00;101049.59;5059813;28;73592;-85
2024/01/16 03:57:26;;;;;;;;;0.00;0.00;;;;;-1.61;100.00;101043.59;5059668;28;70790;-85
2024/01/16 03:59:51;;;;;;;;;0.00;0.00;;;;;-1.59;100.00;101041.09;5042387;28;60443;-85
2024/01/16 04:02:16;;;;;;;;;0.00;0.00;;;;;-1.59;100.00;101043.66;5060144;28;45268;-85
2024/01/16 04:04:42;;;;;;;;;0.00;0.00;;;;;-1.64;100.00;101030.75;5059648;28;75251;-85
2024/01/16 04:07:07;;;;;;;;;0.00;0.00;;;;;-1.62;100.00;101039.31;5042501;28;72892;-84
2024/01/16 04:09:32;;;;;;;;;0.00;0.00;;;;;-1.60;100.00;101040.25;5059612;28;60915;-85
2024/01/16 04:11:58;;;;;;;;;0.00;0.00;;;;;-1.65;100.00;101036.69;5059612;28;68686;-85
2024/01/16 04:14:23;;;;;;;;;0.00;0.00;;;;;-1.69;100.00;101032.34;5058975;28;72116;-85
2024/01/16 04:16:48;;;;;;;;;0.00;0.00;;;;;-1.69;100.00;101034.91;5076891;28;45736;-85
2024/01/16 04:19:14;;;;;;;;;0.00;0.00;;;;;-1.68;100.00;101039.16;5043594;28;45403;-85
2024/01/16 04:21:39;;;;;;;;;0.00;0.00;;;;;-1.67;100.00;101033.25;5078579;28;45316;-85
2024/01/16 04:24:04;;;;;;;;;0.00;0.00;;;;;-1.61;100.00;101040.19;5059613;28;52594;-85
2024/01/16 04:26:30;;;;;;;;;0.00;0.00;;;;;-1.71;100.00;101013.53;5060423;28;45297;-85
2024/01/16 04:28:55;;;;;;;;;0.00;0.00;;;;;-1.63;100.00;101027.38;5059593;28;54985;-85
2024/01/16 04:31:22;;;;;;;;;0.00;0.00;;;;;-1.66;100.00;101008.56;5058654;28;52975;-85
2024/01/16 04:33:47;;;;;;;;;0.00;0.00;;;;;-1.62;100.00;101023.13;5059498;28;48295;-85
2024/01/16 04:36:13;;;;;;;;;0.00;0.00;;;;;-1.61;100.00;101017.22;5077013;28;45367;-85
2024/01/16 04:38:38;;;;;;;;;0.00;0.00;;;;;-1.61;100.00;101023.19;5060123;28;45499;-85
2024/01/16 04:41:04;;;;;;;;;0.00;0.00;;;;;-1.67;100.00;101007.72;5059373;28;64723;-85
2024/01/16 04:43:29;;;;;;;;;0.00;0.00;;;;;-1.69;100.00;101013.59;5059663;28;47954;-85
2024/01/16 04:45:54;;;;;;;;;0.00;0.00;;;;;-1.69;100.00;101008.47;5042555;28;45496;-85
2024/01/16 04:48:20;;;;;;;;;0.00;0.00;;;;;-1.69;100.00;101014.47;5042137;28;47549;-85
2024/01/16 04:50:45;;;;;;;;;0.00;0.00;;;;;-1.73;100.00;101007.53;5059081;28;45530;-85
2024/01/16 04:53:11;;;;;;;;;0.00;0.00;;;;;-1.78;100.00;100998.94;5041929;28;72161;-86
2024/01/16 04:55:36;;;;;;;;;0.00;0.00;;;;;-1.72;100.00;101005.88;5059813;28;45300;-86
2024/01/16 04:58:02;;;;;;;;;0.00;0.00;;;;;-1.79;100.00;100989.53;5059891;28;45498;-85
2024/01/16 05:00:27;;;;;;;;;0.00;0.00;;;;;-1.78;100.00;100987.03;5077508;28;45233;-85
2024/01/16 05:02:52;;;;;;;;;0.00;0.00;;;;;-1.82;100.00;100979.22;5059107;28;54612;-85
2024/01/16 05:05:18;;;;;;;;;0.00;0.00;;;;;-1.84;100.00;100973.22;5037932;28;49580;-85
2024/01/16 05:07:43;;;;;;;;;0.00;0.00;;;;;-1.78;100.00;100983.63;5056743;28;45356;-86
2024/01/16 05:10:12;;;;;;;;;0.00;0.00;;;;;-1.80;100.00;100975.91;5039442;28;46172;-85
2024/01/16 05:12:39;;;;;;;;;0.00;0.00;;;;;-1.88;100.00;100967.19;5061738;28;54137;-85
2024/01/16 05:15:05;;;;;;;;;0.00;0.00;;;;;-1.90;100.00;100957.78;5076320;28;45372;-85
2024/01/16 05:17:30;;;;;;;;;0.00;0.00;;;;;-1.92;100.00;100956.88;5077905;28;45247;-85
2024/01/16 05:19:56;;;;;;;;;0.00;0.00;;;;;-1.90;100.00;100963.72;5075731;28;68808;-86
2024/01/16 05:22:22;;;;;;;;;0.00;0.00;;;;;-1.92;100.00;100962.84;5071157;28;45312;-86
2024/01/16 05:24:47;;;;;;;;;0.00;0.00;;;;;-1.92;100.00;100967.94;5056867;28;54474;-86
2024/01/16 05:27:12;;;;;;;;;0.00;0.00;;;;;-1.96;100.00;100964.44;5039153;28;45387;-86
2024/01/16 05:29:40;;;;;;;;;0.00;0.00;;;;;-1.99;100.00;100961.84;5039235;28;45333;-86
2024/01/16 05:32:06;;;;;;;;;0.00;0.00;;;;;-2.01;100.00;100966.00;5057168;28;46316;-86
2024/01/16 05:34:31;;;;;;;;;0.00;0.00;;;;;-2.05;100.00;100961.66;5042453;28;45524;-86
2024/01/16 05:36:57;;;;;;;;;0.00;0.00;;;;;-2.00;100.00;100970.28;5066924;28;44643;-86
2024/01/16 05:39:22;;;;;;;;;0.00;0.00;;;;;-2.06;100.00;100964.16;5050227;28;45265;-86
2024/01/16 05:41:47;;;;;;;;;0.00;0.00;;;;;-2.04;100.00;100971.03;5069995;28;54330;-86
2024/01/16 05:44:13;;;;;;;;;0.00;0.00;;;;;-2.05;100.00;100963.34;5050793;28;73388;-86
2024/01/16 05:46:38;;;;;;;;;0.00;0.00;;;;;-2.06;100.00;100964.16;5070323;28;45319;-86
2024/01/16 05:49:03;;;;;;;;;0.00;0.00;;;;;-2.03;100.00;100959.16;5070133;28;45425;-86
2024/01/16 05:51:29;;;;;;;;;0.00;0.00;;;;;-2.06;100.00;100951.41;5069252;28;46755;-86
2024/01/16 05:53:56;;;;;;;;;0.00;0.00;;;;;-2.04;100.00;100947.22;5069353;28;45391;-86
2024/01/16 05:56:21;;;;;;;;;0.00;0.00;;;;;-2.04;100.00;100955.75;5086928;27;45219;-86
2024/01/16 05:58:47;;;;;;;;;0.00;0.00;;;;;-2.05;100.00;100954.00;5067177;28;68057;-85
2024/01/16 06:01:13;;;;;;;;;0.00;0.00;;;;;-2.08;100.00;100943.75;5050377;27;71154;-86
2024/01/16 06:03:39;;;;;;;;;0.00;0.00;;;;;-2.08;100.00;100938.63;5067808;28;45210;-86
2024/01/16 06:06:05;;;;;;;;;0.00;0.00;;;;;-2.06;100.00;100941.19;5061089;28;45284;-86
2024/01/16 06:08:30;;;;;;;;;0.00;0.00;;;;;-2.09;100.00;100936.91;5077182;28;45625;-86
2024/01/16 06:10:55;;;;;;;;;0.00;0.00;;;;;-2.07;100.00;100940.34;5058599;28;62377;-85
2024/01/16 06:13:23;;;;;;;;;18.67;18.67;;;;;-2.09;100.00;100933.50;5074861;28;61458;-87
2024/01/16 06:15:48;;;;;;;;;0.00;0.00;;;;;-2.13;100.00;100931.69;5059176;28;45332;-86
2024/01/16 06:18:14;;;;;;;;;0.00;0.00;;;;;-2.12;100.00;100939.34;5042240;28;45498;-86
2024/01/16 06:20:39;;;;;;;;;0.00;0.00;;;;;-2.12;100.00;100946.16;5054884;28;71754;-86
2024/01/16 06:23:04;;;;;;;;;0.00;0.00;;;;;-2.17;100.00;100943.50;5054546;28;73214;-86
2024/01/16 06:25:30;;;;;;;;;0.00;0.00;;;;;-2.20;100.00;100949.34;5055720;28;45310;-86
2024/01/16 06:27:55;;;;;;;;;0.00;0.00;;;;;-2.18;100.00;100950.25;5039567;28;51827;-86
2024/01/16 06:30:21;;;;;;;;;0.00;0.00;;;;;-2.22;100.00;100948.47;5056455;28;53723;-86
2024/01/16 06:32:47;;;;;;;;;0.00;0.00;;;;;-2.19;100.00;100952.75;5051328;28;45270;-86
2024/01/16 06:35:13;;;;;;;;;0.00;0.00;;;;;-2.15;100.00;100946.94;5037334;28;45562;-84
2024/01/16 06:37:39;;;;;;;;;18.00;18.00;;;;;-2.28;100.00;100927.06;5054490;28;45334;-85
2024/01/16 06:40:05;;;;;;;;;0.00;0.00;;;;;-2.22;100.00;100938.25;5055924;28;50931;-85
2024/01/16 06:42:31;;;;;;;;;0.00;0.00;;;;;-2.15;100.00;100952.03;5053784;28;45340;-84
2024/01/16 06:44:56;;;;;;;;;0.00;0.00;;;;;-2.17;100.00;100949.44;5034287;28;45384;-83
2024/01/16 06:47:23;;;;;;;;;0.00;0.00;;;;;-2.17;100.00;100953.69;5034698;28;45274;-82
2024/01/16 06:49:49;;;;;;;;;0.00;0.00;;;;;-2.22;100.00;100939.94;5050041;28;45408;-84
2024/01/16 06:52:14;;;;;;;;;0.00;0.00;;;;;-2.16;100.00;100947.75;5039669;28;45266;-87
2024/01/16 06:54:39;;;;;;;;;0.00;0.00;;;;;-2.24;100.00;100950.09;5036989;28;62364;-86
2024/01/16 06:57:05;;;;;;;;;0.00;0.00;;;;;-2.19;100.00;100947.66;5054241;28;69261;-83
2024/01/16 06:59:30;;;;;;;;;0.00;0.00;;;;;-2.20;100.00;100962.09;5056314;28;73311;-84
2024/01/16 07:01:55;;;;;;;;;0.00;0.00;;;;;-2.17;100.00;100966.44;5056423;28;63044;-88
2024/01/16 07:04:21;;;;;;;;;0.00;0.00;;;;;-2.20;100.00;100957.00;5059925;28;45324;-85
2024/01/16 07:06:47;;;;;;;;;0.00;0.00;;;;;-2.18;100.00;100964.72;5040391;28;55971;-85
2024/01/16 07:09:12;;;;;;;;;0.00;0.00;;;;;-2.19;100.00;100961.31;5057346;28;48147;-86
2024/01/16 07:11:42;;;;;;;;;0.00;0.00;;;;;-2.13;100.00;100960.59;5040342;28;45645;-86
2024/01/16 07:14:08;;;;;;;;;4.00;4.00;;;;;-2.10;100.00;100970.00;5059241;28;45300;-85
2024/01/16 07:16:34;;;;;;;;;0.00;0.00;;;;;-2.11;100.00;100964.06;5041827;28;45286;-90
2024/01/16 07:18:59;;;;;;;;;0.00;0.00;;;;;-2.11;100.00;100943.66;5057644;28;47034;-84
2024/01/16 07:21:24;;;;;;;;;30.00;27.00;;;;;-2.04;100.00;100953.19;5057654;28;45538;-87
2024/01/16 07:23:50;;;;;;;;;0.00;0.00;;;;;-2.05;100.00;100948.03;5057893;28;45317;-92
2024/01/16 07:26:16;;;;;;;;;0.00;0.00;;;;;-1.99;100.00;100956.72;5056283;28;64510;-84
2024/01/16 07:28:41;;;;;;;;;0.00;0.00;;;;;-2.04;100.00;100952.34;5057144;28;47195;-87
2024/01/16 07:31:07;;;;;;;;;0.00;0.00;;;;;-1.98;100.00;100957.59;5068062;28;45346;-87
2024/01/16 07:33:32;;;;;;;;;0.00;0.00;;;;;-1.97;100.00;100960.19;5071507;28;45521;-87
2024/01/16 07:35:58;;;;;;;;;0.00;0.00;;;;;-1.93;100.00;100970.44;5040180;28;70595;-87
2024/01/16 07:38:23;;;;;;;;;0.00;0.00;;;;;-1.88;100.00;100968.88;5056350;28;54892;-86
2024/01/16 07:40:49;;;;;;;;;0.00;0.00;;;;;-1.89;100.00;100950.16;5050566;28;74412;-85
2024/01/16 07:43:14;;;;;;;;;0.00;0.00;;;;;-1.84;100.00;100945.16;5072666;28;45308;-86
2024/01/16 07:45:39;;;;;;;;;0.00;0.00;;;;;-1.85;100.00;100946.00;5057941;28;69278;-86
2024/01/16 07:48:05;;;;;;;;;0.00;0.00;;;;;-1.86;100.00;100957.03;5064951;28;74535;-85
2024/01/16 07:50:30;;;;;;;;;0.00;0.00;;;;;-1.89;100.00;100960.38;5063184;27;45387;-86
2024/01/16 07:52:55;;;;;;;;;0.00;0.00;;;;;-1.88;100.00;100972.28;5057265;28;64970;-85
2024/01/16 07:55:21;;;;;;;;;0.00;0.00;;;;;-1.86;100.00;100970.63;5046651;28;70175;-85
2024/01/16 07:57:46;;;;;;;;;0.00;0.00;;;;;-1.84;100.00;100968.13;5054041;28;75508;-85
2024/01/16 08:00:12;;;;;;;;;0.00;0.00;;;;;-1.85;100.00;100966.41;5018987;28;62818;-85
2024/01/16 08:02:37;;;;;;;;;5.00;5.00;;;;;-1.82;100.00;100967.38;5053218;28;45391;-84
2024/01/16 08:05:03;;;;;;;;;0.00;0.00;;;;;-1.81;100.00;100956.31;5045436;28;45356;-86
2024/01/16 08:07:29;;;;;;;;;0.00;0.00;;;;;-1.78;100.00;100969.16;5056489;28;47509;-86
2024/01/16 08:09:54;;;;;;;;;0.00;0.00;;;;;-1.78;100.00;100966.59;5039284;28;45467;-85
2024/01/16 08:12:20;;;;;;;;;0.00;0.00;;;;;-1.78;100.00;100969.16;5056390;28;49606;-85
2024/01/16 08:14:45;;;;;;;;;0.00;0.00;;;;;-1.76;100.00;100969.19;5053392;28;68706;-86
2024/01/16 08:17:10;;;;;;;;;0.00;0.00;;;;;-1.74;100.00;100974.34;5056072;28;73672;-85
2024/01/16 08:19:36;;;;;;;;;6.00;6.00;;;;;-1.76;100.00;100964.94;5055402;28;45257;-85
2024/01/16 08:22:04;;;;;;;;;0.00;0.00;;;;;-1.72;100.00;100952.28;5048812;28;53688;-85
2024/01/16 08:24:31;;;;;;;;;0.00;0.00;;;;;-1.62;100.00;100964.44;5057149;28;45654;-86
2024/01/16 08:26:59;;;;;;;;;0.00;0.00;;;;;-1.61;100.00;100959.34;5066335;28;47258;-86
2024/01/16 08:29:25;;;;;;;;;0.00;0.00;;;;;-1.53;100.00;100966.34;5048088;28;45352;-85
2024/01/16 08:31:53;;;;;;;;;0.00;0.00;;;;;-1.46;100.00;100965.66;5069815;28;45233;-87
2024/01/16 08:34:18;;;;;;;;;0.00;0.00;;;;;-1.39;100.00;100967.53;5045157;28;45604;-84
2024/01/16 08:36:44;;;;;;;;;0.00;0.00;;;;;-1.34;100.00;100965.94;5056673;28;46715;-84
2024/01/16 08:39:10;;;;;;;;;0.00;0.00;;;;;-1.27;100.00;100972.06;5057478;28;45414;-86
2024/01/16 08:41:36;;;;;;;;;0.00;0.00;;;;;-1.25;100.00;100975.50;5054714;28;45367;-86
2024/01/16 08:44:01;;;;;;;;;0.00;0.00;;;;;-1.19;100.00;100971.41;5057346;28;45365;-86
2024/01/16 08:46:26;;;;;;;;;0.00;0.00;;;;;-1.12;100.00;100962.19;5064200;28;74374;-86
2024/01/16 08:48:52;;;;;;;;;0.00;0.00;;;;;-1.09;100.00;100952.03;5055233;28;61093;-86
2024/01/16 08:51:17;;;;;;;;;8.00;8.00;;;;;-1.03;100.00;100958.97;5060059;28;45321;-85
2024/01/16 08:53:42;;;;;;;;;3.00;3.00;;;;;-1.04;100.00;100942.78;5074043;27;70562;-86
2024/01/16 08:56:08;;;;;;;;;0.00;0.00;;;;;-0.98;100.00;100945.47;5053493;28;64819;-85
2024/01/16 08:58:35;;;;;;;;;0.00;0.00;;;;;-0.96;100.00;100953.19;5057290;28;45383;-85
2024/01/16 09:01:02;;;;;;;;;0.00;0.00;;;;;-0.94;100.00;100953.22;5056848;28;45245;-86
2024/01/16 09:03:28;;;;;;;;;0.00;0.00;;;;;-0.92;100.00;100954.97;5045617;28;45534;-86
2024/01/16 09:05:53;;;;;;;;;0.00;0.00;;;;;-1.01;100.00;100949.66;5031808;28;73716;-84
2024/01/16 09:08:18;;;;;;;;;0.00;0.00;;;;;-0.99;100.00;100953.09;5049863;28;69964;-83
2024/01/16 09:10:44;;;;;;;;;0.00;0.00;;;;;-1.01;100.00;100950.50;5021395;28;65227;-84
2024/01/16 09:13:09;;;;;;;;;0.00;0.00;;;;;-1.04;100.00;100950.47;5046498;28;45387;-85
2024/01/16 09:15:34;;;;;;;;;0.00;0.00;;;;;-1.05;100.00;100956.38;5044726;28;46342;-85
2024/01/16 09:18:00;;;;;;;;;0.00;0.00;;;;;-1.09;100.00;100954.59;5034633;28;68543;-85
2024/01/16 09:20:25;;;;;;;;;0.00;0.00;;;;;-1.06;100.00;100966.56;5071826;27;45570;-84
2024/01/16 09:22:50;;;;;;;;;0.00;0.00;;;;;-1.04;100.00;100954.69;5088628;27;60946;-85
2024/01/16 09:25:16;;;;;;;;;0.00;0.00;;;;;-0.98;100.00;100957.41;5071273;28;45606;-84
2024/01/16 09:27:42;;;;;;;;;0.00;0.00;;;;;-0.93;100.00;100940.44;5057982;27;45546;-84
2024/01/16 09:30:08;;;;;;;;;0.00;0.00;;;;;-0.84;100.00;100950.00;5073162;28;45386;-85
2024/01/16 09:32:35;;;;;;;;;0.00;0.00;;;;;-0.79;100.00;100941.59;5037961;28;45638;-86
2024/01/16 09:35:03;;;;;;;;;0.00;0.00;;;;;-0.75;100.00;100944.25;5047521;27;46888;-85
2024/01/16 09:37:28;;;;;;;;;0.00;0.00;;;;;-0.70;100.00;100945.19;5046789;28;45871;-86
2024/01/16 09:39:54;;;;;;;;;0.00;0.00;;;;;-0.70;100.00;100923.03;5048230;28;45466;-85
2024/01/16 09:42:19;;;;;;;;;0.00;0.00;;;;;-0.64;100.00;100924.88;5046035;28;45514;-85
2024/01/16 09:44:45;;;;;;;;;0.00;0.00;;;;;-0.59;100.00;100918.16;5038518;28;48068;-85
2024/01/16 09:47:11;;;;;;;;;0.00;0.00;;;;;-0.54;100.00;100908.00;5059455;28;45387;-85
2024/01/16 09:49:37;;;;;;;;;0.00;0.00;;;;;-0.51;100.00;100908.06;5045950;28;45387;-85
2024/01/16 09:52:03;;;;;;;;;0.00;0.00;;;;;-0.41;100.00;100918.50;5054399;28;45344;-85
2024/01/16 09:54:29;;;;;;;;;0.00;0.00;;;;;-0.41;100.00;100915.94;5060506;27;47178;-86
2024/01/16 09:56:58;;;;;;;;;0.00;0.00;;;;;-0.33;100.00;100920.34;5055062;27;74611;-85
2024/01/16 09:59:24;;;;;;;;;3.25;3.25;;;;;-0.35;100.00;100911.75;5049464;28;45571;-85
2024/01/16 10:01:51;;;;;;;;;1.50;1.50;;;;;-0.24;100.00;100931.59;5057168;28;45375;-84
2024/01/16 10:04:17;;;;;;;;;0.00;0.00;;;;;-0.20;100.00;100920.59;5078136;27;46234;-85
2024/01/16 10:06:46;;;;;;;;;0.00;0.00;;;;;-0.18;100.00;100917.22;5023668;28;46261;-85
2024/01/16 10:09:12;;;;;;;;;0.00;0.00;;;;;-0.11;100.00;100916.44;5073464;27;45447;-85
2024/01/16 10:11:37;;;;;;;;;0.00;0.00;;;;;-0.05;100.00;100925.13;5057688;28;45367;-85
2024/01/16 10:14:03;;;;;;;;;0.00;0.00;;;;;-0.01;100.00;100921.75;5040240;28;75952;-84
2024/01/16 10:17:02;;;;;;;;;0.00;0.00;;;;;0.05;100.00;100921.00;5066123;28;73024;-84
2024/01/16 10:19:29;;;;;;;;;0.00;0.00;;;;;0.11;100.00;100923.69;5040840;28;45266;-86
2024/01/16 10:22:04;;;;;;;;;1.00;1.00;;;;;0.19;100.00;100922.09;5058130;28;45338;-85
2024/01/16 10:24:30;;;;;;;;;0.00;0.00;;;;;0.24;100.00;100911.06;5075847;28;46315;-85
2024/01/16 10:27:06;;;;;;;;;0.00;0.00;;;;;0.31;100.00;100910.34;5076389;27;45686;-84
2024/01/16 10:29:31;;;;;;;;;0.00;0.00;;;;;0.37;100.00;100898.50;5076552;27;45217;-85
2024/01/16 10:31:57;;;;;;;;;0.00;0.00;;;;;0.48;100.00;100897.78;5072879;27;45536;-84
2024/01/16 10:34:23;;;;;;;;;0.00;0.00;;;;;0.54;100.00;100895.34;5080548;27;47065;-84
2024/01/16 10:36:52;;;;;;;;;1.00;1.00;;;;;0.57;100.00;100896.22;5078255;28;45470;-85
2024/01/16 10:39:17;;;;;;;;;0.00;0.00;;;;;0.70;100.00;100902.38;5063634;28;45584;-85
2024/01/16 10:41:55;;;;;;;;;0.00;0.00;;;;;0.78;100.00;100894.81;5078249;28;45470;-84
2024/01/16 10:44:20;;;;;;;;;0.00;0.00;;;;;0.89;100.00;100890.69;5058594;28;47158;-85
2024/01/16 10:46:45;;;;;;;;;0.00;0.00;;;;;0.99;100.00;100890.81;5043039;27;73085;-84
2024/01/16 10:49:11;;;;;;;;;7.00;7.00;;;;;1.11;100.00;100888.38;5036939;28;67850;-85
2024/01/16 10:51:36;;;;;;;;;0.00;0.00;;;;;1.23;100.00;100887.69;5057083;28;45883;-85
2024/01/16 10:54:10;;;;;;;;;0.00;0.00;;;;;1.37;100.00;100887.84;5069768;28;45396;-86
2024/01/16 10:56:36;;;;;;;;;0.00;0.00;;;;;1.52;100.00;100891.44;5079045;27;45345;-85
2024/01/16 10:59:33;;;;;;;;;0.00;0.00;;;;;1.75;100.00;100885.69;5078843;27;45428;-85
2024/01/16 11:02:00;;;;;;;;;0.75;0.75;;;;;1.86;100.00;100881.50;5061943;27;45549;-86
2024/01/16 11:04:27;;;;;;;;;0.00;0.00;;;;;2.06;100.00;100868.84;5068670;28;45505;-85
2024/01/16 11:06:52;;;;;;;;;0.00;0.00;;;;;2.28;100.00;100869.00;5031346;28;73103;-85
2024/01/16 11:09:18;;;;;;;;;0.00;0.00;;;;;2.51;100.00;100867.44;5045740;27;45537;-85
2024/01/16 11:11:44;;;;;;;;;0.00;0.00;;;;;4.26;100.00;100867.03;5064607;27;45581;-85